sensor_id;sensor_type;location;lat;lon;timestamp;P1;durP1;ratioP1;P2;durP2;ratioP2
69207;SDS011;70114;47.690;8.898;2024-03-02T00:01:04;12.25;;;4.47;;
69207;SDS011;70114;47.690;8.898;2024-03-02T00:03:31;12.80;;;4.32;;
69207;SDS011;70114;47.690;8.898;2024-03-02T00:05:56;12.63;;;4.13;;
69207;SDS011;70114;47.690;8.898;2024-03-02T00:08:22;13.27;;;4.57;;
69207;SDS011;70114;47.690;8.898;2024-03-02T00:10:51;14.18;;;4.30;;
69207;SDS011;70114;47.690;8.898;2024-03-02T00:13:16;10.87;;;3.97;;
69207;SDS011;70114;47.690;8.898;2024-03-02T00:15:48;13.80;;;4.45;;
69207;SDS011;70114;47.690;8.898;2024-03-02T00:18:20;12.57;;;4.28;;
69207;SDS011;70114;47.690;8.898;2024-03-02T00:20:51;12.38;;;4.03;;
69207;SDS011;70114;47.690;8.898;2024-03-02T00:23:19;11.75;;;4.28;;
69207;SDS011;70114;47.690;8.898;2024-03-02T00:25:47;13.23;;;4.40;;
69207;SDS011;70114;47.690;8.898;2024-03-02T00:28:16;11.30;;;3.95;;
69207;SDS011;70114;47.690;8.898;2024-03-02T00:33:36;11.40;;;3.95;;
69207;SDS011;70114;47.690;8.898;2024-03-02T00:36:08;11.32;;;3.88;;
69207;SDS011;70114;47.690;8.898;2024-03-02T00:38:43;11.40;;;3.67;;
69207;SDS011;70114;47.690;8.898;2024-03-02T00:41:17;13.38;;;4.40;;
69207;SDS011;70114;47.690;8.898;2024-03-02T00:46:29;14.35;;;4.32;;
69207;SDS011;70114;47.690;8.898;2024-03-02T00:48:58;11.60;;;4.13;;
69207;SDS011;70114;47.690;8.898;2024-03-02T00:51:26;10.87;;;3.43;;
69207;SDS011;70114;47.690;8.898;2024-03-02T00:53:53;10.48;;;3.45;;
69207;SDS011;70114;47.690;8.898;2024-03-02T00:56:22;12.10;;;4.00;;
69207;SDS011;70114;47.690;8.898;2024-03-02T00:58:51;13.57;;;4.57;;
69207;SDS011;70114;47.690;8.898;2024-03-02T01:01:17;12.55;;;4.13;;
69207;SDS011;70114;47.690;8.898;2024-03-02T01:03:44;11.40;;;3.60;;
69207;SDS011;70114;47.690;8.898;2024-03-02T01:06:10;11.25;;;3.72;;
69207;SDS011;70114;47.690;8.898;2024-03-02T01:08:35;11.33;;;3.60;;
69207;SDS011;70114;47.690;8.898;2024-03-02T01:11:01;11.93;;;4.07;;
69207;SDS011;70114;47.690;8.898;2024-03-02T01:13:27;11.02;;;3.50;;
69207;SDS011;70114;47.690;8.898;2024-03-02T01:15:53;13.13;;;4.00;;
69207;SDS011;70114;47.690;8.898;2024-03-02T01:18:18;12.10;;;3.77;;
69207;SDS011;70114;47.690;8.898;2024-03-02T01:20:44;12.90;;;4.20;;
69207;SDS011;70114;47.690;8.898;2024-03-02T01:23:09;11.88;;;4.00;;
69207;SDS011;70114;47.690;8.898;2024-03-02T01:25:35;12.27;;;3.83;;
69207;SDS011;70114;47.690;8.898;2024-03-02T01:28:00;12.53;;;4.07;;
69207;SDS011;70114;47.690;8.898;2024-03-02T01:30:26;10.75;;;3.78;;
69207;SDS011;70114;47.690;8.898;2024-03-02T01:32:51;11.80;;;3.87;;
69207;SDS011;70114;47.690;8.898;2024-03-02T01:35:17;11.83;;;3.70;;
69207;SDS011;70114;47.690;8.898;2024-03-02T01:37:42;10.88;;;3.55;;
69207;SDS011;70114;47.690;8.898;2024-03-02T01:40:08;11.17;;;3.90;;
69207;SDS011;70114;47.690;8.898;2024-03-02T01:42:37;13.63;;;3.78;;
69207;SDS011;70114;47.690;8.898;2024-03-02T01:45:06;11.97;;;4.03;;
69207;SDS011;70114;47.690;8.898;2024-03-02T01:47:32;14.35;;;4.32;;
69207;SDS011;70114;47.690;8.898;2024-03-02T01:49:57;12.10;;;4.13;;
69207;SDS011;70114;47.690;8.898;2024-03-02T01:52:23;13.13;;;4.27;;
69207;SDS011;70114;47.690;8.898;2024-03-02T01:54:49;12.15;;;4.03;;
69207;SDS011;70114;47.690;8.898;2024-03-02T01:57:15;13.90;;;4.60;;
69207;SDS011;70114;47.690;8.898;2024-03-02T01:59:40;14.23;;;5.18;;
69207;SDS011;70114;47.690;8.898;2024-03-02T02:02:06;14.13;;;4.97;;
69207;SDS011;70114;47.690;8.898;2024-03-02T02:04:32;12.55;;;4.13;;
69207;SDS011;70114;47.690;8.898;2024-03-02T02:06:58;12.77;;;4.40;;
69207;SDS011;70114;47.690;8.898;2024-03-02T02:09:24;14.82;;;4.28;;
69207;SDS011;70114;47.690;8.898;2024-03-02T02:11:50;13.88;;;4.38;;
69207;SDS011;70114;47.690;8.898;2024-03-02T02:14:15;12.93;;;4.30;;
69207;SDS011;70114;47.690;8.898;2024-03-02T02:16:41;12.20;;;3.97;;
69207;SDS011;70114;47.690;8.898;2024-03-02T02:19:06;14.27;;;4.43;;
69207;SDS011;70114;47.690;8.898;2024-03-02T02:21:32;14.17;;;4.20;;
69207;SDS011;70114;47.690;8.898;2024-03-02T02:23:57;12.40;;;4.07;;
69207;SDS011;70114;47.690;8.898;2024-03-02T02:26:22;13.63;;;4.13;;
69207;SDS011;70114;47.690;8.898;2024-03-02T02:28:48;14.30;;;4.67;;
69207;SDS011;70114;47.690;8.898;2024-03-02T02:31:13;13.73;;;4.70;;
69207;SDS011;70114;47.690;8.898;2024-03-02T02:33:42;14.83;;;4.77;;
69207;SDS011;70114;47.690;8.898;2024-03-02T02:36:08;14.50;;;4.85;;
69207;SDS011;70114;47.690;8.898;2024-03-02T02:38:36;13.98;;;4.45;;
69207;SDS011;70114;47.690;8.898;2024-03-02T02:41:04;13.93;;;4.60;;
69207;SDS011;70114;47.690;8.898;2024-03-02T02:43:29;15.23;;;4.93;;
69207;SDS011;70114;47.690;8.898;2024-03-02T02:45:55;14.33;;;4.80;;
69207;SDS011;70114;47.690;8.898;2024-03-02T02:48:20;17.63;;;5.83;;
69207;SDS011;70114;47.690;8.898;2024-03-02T02:50:47;16.67;;;5.83;;
69207;SDS011;70114;47.690;8.898;2024-03-02T02:53:12;15.35;;;4.93;;
69207;SDS011;70114;47.690;8.898;2024-03-02T02:55:39;16.33;;;5.23;;
69207;SDS011;70114;47.690;8.898;2024-03-02T02:58:08;15.65;;;5.00;;
69207;SDS011;70114;47.690;8.898;2024-03-02T03:00:34;16.10;;;5.47;;
69207;SDS011;70114;47.690;8.898;2024-03-02T03:02:59;15.77;;;5.67;;
69207;SDS011;70114;47.690;8.898;2024-03-02T03:05:24;15.13;;;4.97;;
69207;SDS011;70114;47.690;8.898;2024-03-02T03:07:50;14.53;;;4.67;;
69207;SDS011;70114;47.690;8.898;2024-03-02T03:10:15;13.70;;;4.97;;
69207;SDS011;70114;47.690;8.898;2024-03-02T03:12:41;16.63;;;5.75;;
69207;SDS011;70114;47.690;8.898;2024-03-02T03:15:08;15.02;;;5.03;;
69207;SDS011;70114;47.690;8.898;2024-03-02T03:17:34;17.10;;;5.50;;
69207;SDS011;70114;47.690;8.898;2024-03-02T03:20:00;17.40;;;5.27;;
69207;SDS011;70114;47.690;8.898;2024-03-02T03:22:26;16.05;;;5.22;;
69207;SDS011;70114;47.690;8.898;2024-03-02T03:24:52;17.77;;;5.68;;
69207;SDS011;70114;47.690;8.898;2024-03-02T03:27:17;16.13;;;5.87;;
69207;SDS011;70114;47.690;8.898;2024-03-02T03:29:44;18.48;;;5.55;;
69207;SDS011;70114;47.690;8.898;2024-03-02T03:32:10;17.43;;;5.63;;
69207;SDS011;70114;47.690;8.898;2024-03-02T03:34:35;18.30;;;6.13;;
69207;SDS011;70114;47.690;8.898;2024-03-02T03:37:01;17.83;;;5.83;;
69207;SDS011;70114;47.690;8.898;2024-03-02T03:39:27;16.42;;;6.10;;
69207;SDS011;70114;47.690;8.898;2024-03-02T03:41:53;18.37;;;6.00;;
69207;SDS011;70114;47.690;8.898;2024-03-02T03:44:19;16.63;;;5.80;;
69207;SDS011;70114;47.690;8.898;2024-03-02T03:46:44;16.23;;;5.37;;
69207;SDS011;70114;47.690;8.898;2024-03-02T03:49:09;17.07;;;5.47;;
69207;SDS011;70114;47.690;8.898;2024-03-02T03:51:35;14.88;;;4.78;;
69207;SDS011;70114;47.690;8.898;2024-03-02T03:54:00;15.57;;;5.00;;
69207;SDS011;70114;47.690;8.898;2024-03-02T03:56:26;16.13;;;5.63;;
69207;SDS011;70114;47.690;8.898;2024-03-02T03:58:51;15.23;;;5.15;;
69207;SDS011;70114;47.690;8.898;2024-03-02T04:01:17;15.73;;;5.63;;
69207;SDS011;70114;47.690;8.898;2024-03-02T04:03:43;15.17;;;5.30;;
69207;SDS011;70114;47.690;8.898;2024-03-02T04:06:08;15.82;;;5.38;;
69207;SDS011;70114;47.690;8.898;2024-03-02T04:08:33;14.43;;;4.73;;
69207;SDS011;70114;47.690;8.898;2024-03-02T04:10:59;17.07;;;5.40;;
69207;SDS011;70114;47.690;8.898;2024-03-02T04:13:24;17.13;;;5.73;;
69207;SDS011;70114;47.690;8.898;2024-03-02T04:15:50;16.53;;;5.43;;
69207;SDS011;70114;47.690;8.898;2024-03-02T04:18:15;17.73;;;5.50;;
69207;SDS011;70114;47.690;8.898;2024-03-02T04:20:41;17.88;;;5.95;;
69207;SDS011;70114;47.690;8.898;2024-03-02T04:23:06;15.57;;;5.40;;
69207;SDS011;70114;47.690;8.898;2024-03-02T04:25:32;17.07;;;5.63;;
69207;SDS011;70114;47.690;8.898;2024-03-02T04:27:58;18.88;;;5.95;;
69207;SDS011;70114;47.690;8.898;2024-03-02T04:30:23;17.50;;;5.60;;
69207;SDS011;70114;47.690;8.898;2024-03-02T04:32:50;19.13;;;5.70;;
69207;SDS011;70114;47.690;8.898;2024-03-02T04:35:15;15.82;;;5.43;;
69207;SDS011;70114;47.690;8.898;2024-03-02T04:37:41;18.23;;;5.37;;
69207;SDS011;70114;47.690;8.898;2024-03-02T04:40:06;15.90;;;5.50;;
69207;SDS011;70114;47.690;8.898;2024-03-02T04:42:35;15.32;;;5.53;;
69207;SDS011;70114;47.690;8.898;2024-03-02T04:45:01;15.55;;;5.35;;
69207;SDS011;70114;47.690;8.898;2024-03-02T04:47:27;14.03;;;5.03;;
69207;SDS011;70114;47.690;8.898;2024-03-02T04:49:52;17.20;;;5.57;;
69207;SDS011;70114;47.690;8.898;2024-03-02T04:52:17;16.80;;;5.70;;
69207;SDS011;70114;47.690;8.898;2024-03-02T04:54:43;17.13;;;6.03;;
69207;SDS011;70114;47.690;8.898;2024-03-02T04:57:27;23.70;;;8.63;;
69207;SDS011;70114;47.690;8.898;2024-03-02T04:59:52;17.07;;;5.90;;
69207;SDS011;70114;47.690;8.898;2024-03-02T05:02:18;19.33;;;6.10;;
69207;SDS011;70114;47.690;8.898;2024-03-02T05:04:43;26.83;;;9.00;;
69207;SDS011;70114;47.690;8.898;2024-03-02T05:07:09;17.80;;;6.13;;
69207;SDS011;70114;47.690;8.898;2024-03-02T05:09:34;18.47;;;5.53;;
69207;SDS011;70114;47.690;8.898;2024-03-02T05:12:00;15.43;;;5.47;;
69207;SDS011;70114;47.690;8.898;2024-03-02T05:15:00;13.57;;;4.72;;
69207;SDS011;70114;47.690;8.898;2024-03-02T05:17:25;16.63;;;5.47;;
69207;SDS011;70114;47.690;8.898;2024-03-02T05:19:51;14.93;;;4.90;;
69207;SDS011;70114;47.690;8.898;2024-03-02T05:22:16;13.40;;;4.40;;
69207;SDS011;70114;47.690;8.898;2024-03-02T05:24:41;13.83;;;4.77;;
69207;SDS011;70114;47.690;8.898;2024-03-02T05:27:07;14.63;;;4.67;;
69207;SDS011;70114;47.690;8.898;2024-03-02T05:29:32;13.53;;;5.03;;
69207;SDS011;70114;47.690;8.898;2024-03-02T05:31:58;15.40;;;4.90;;
69207;SDS011;70114;47.690;8.898;2024-03-02T05:34:23;15.10;;;4.60;;
69207;SDS011;70114;47.690;8.898;2024-03-02T05:36:48;15.23;;;4.30;;
69207;SDS011;70114;47.690;8.898;2024-03-02T05:39:14;13.27;;;4.40;;
69207;SDS011;70114;47.690;8.898;2024-03-02T05:41:39;31.20;;;14.03;;
69207;SDS011;70114;47.690;8.898;2024-03-02T05:44:04;23.20;;;8.30;;
69207;SDS011;70114;47.690;8.898;2024-03-02T05:46:30;31.77;;;14.55;;
69207;SDS011;70114;47.690;8.898;2024-03-02T05:48:55;15.60;;;6.10;;
69207;SDS011;70114;47.690;8.898;2024-03-02T05:51:21;18.30;;;7.17;;
69207;SDS011;70114;47.690;8.898;2024-03-02T05:53:46;20.90;;;8.70;;
69207;SDS011;70114;47.690;8.898;2024-03-02T05:56:11;21.10;;;8.07;;
69207;SDS011;70114;47.690;8.898;2024-03-02T05:58:37;19.87;;;6.60;;
69207;SDS011;70114;47.690;8.898;2024-03-02T06:01:15;13.77;;;4.93;;
69207;SDS011;70114;47.690;8.898;2024-03-02T06:03:40;13.37;;;4.20;;
69207;SDS011;70114;47.690;8.898;2024-03-02T06:06:05;15.30;;;5.28;;
69207;SDS011;70114;47.690;8.898;2024-03-02T06:08:31;15.27;;;5.07;;
69207;SDS011;70114;47.690;8.898;2024-03-02T06:10:56;15.43;;;5.60;;
69207;SDS011;70114;47.690;8.898;2024-03-02T06:13:22;14.70;;;5.60;;
69207;SDS011;70114;47.690;8.898;2024-03-02T06:15:48;14.27;;;4.50;;
69207;SDS011;70114;47.690;8.898;2024-03-02T06:18:13;14.27;;;4.90;;
69207;SDS011;70114;47.690;8.898;2024-03-02T06:20:38;14.27;;;4.63;;
69207;SDS011;70114;47.690;8.898;2024-03-02T06:23:04;14.27;;;5.00;;
69207;SDS011;70114;47.690;8.898;2024-03-02T06:25:29;14.37;;;5.17;;
69207;SDS011;70114;47.690;8.898;2024-03-02T06:27:54;13.37;;;4.37;;
69207;SDS011;70114;47.690;8.898;2024-03-02T06:30:20;14.80;;;5.57;;
69207;SDS011;70114;47.690;8.898;2024-03-02T06:32:45;16.57;;;6.43;;
69207;SDS011;70114;47.690;8.898;2024-03-02T06:35:10;14.13;;;5.23;;
69207;SDS011;70114;47.690;8.898;2024-03-02T06:37:37;14.98;;;5.45;;
69207;SDS011;70114;47.690;8.898;2024-03-02T06:40:05;16.10;;;5.10;;
69207;SDS011;70114;47.690;8.898;2024-03-02T06:42:32;13.43;;;5.43;;
69207;SDS011;70114;47.690;8.898;2024-03-02T06:44:58;14.73;;;4.83;;
69207;SDS011;70114;47.690;8.898;2024-03-02T06:47:24;13.60;;;4.90;;
69207;SDS011;70114;47.690;8.898;2024-03-02T06:49:49;11.73;;;4.30;;
69207;SDS011;70114;47.690;8.898;2024-03-02T06:52:15;13.80;;;4.60;;
69207;SDS011;70114;47.690;8.898;2024-03-02T06:54:41;11.70;;;3.70;;
69207;SDS011;70114;47.690;8.898;2024-03-02T06:57:06;12.35;;;4.38;;
69207;SDS011;70114;47.690;8.898;2024-03-02T06:59:32;12.13;;;4.10;;
69207;SDS011;70114;47.690;8.898;2024-03-02T07:01:58;17.10;;;3.90;;
69207;SDS011;70114;47.690;8.898;2024-03-02T07:04:23;12.60;;;3.92;;
69207;SDS011;70114;47.690;8.898;2024-03-02T07:06:49;10.30;;;3.53;;
69207;SDS011;70114;47.690;8.898;2024-03-02T07:09:14;15.43;;;3.93;;
69207;SDS011;70114;47.690;8.898;2024-03-02T07:11:39;20.30;;;4.20;;
69207;SDS011;70114;47.690;8.898;2024-03-02T07:14:05;13.57;;;3.73;;
69207;SDS011;70114;47.690;8.898;2024-03-02T07:16:31;11.40;;;3.95;;
69207;SDS011;70114;47.690;8.898;2024-03-02T07:18:58;10.27;;;3.70;;
69207;SDS011;70114;47.690;8.898;2024-03-02T07:21:24;10.13;;;3.47;;
69207;SDS011;70114;47.690;8.898;2024-03-02T07:23:49;9.35;;;3.40;;
69207;SDS011;70114;47.690;8.898;2024-03-02T07:26:15;11.37;;;3.50;;
69207;SDS011;70114;47.690;8.898;2024-03-02T07:28:43;10.77;;;3.65;;
69207;SDS011;70114;47.690;8.898;2024-03-02T07:31:09;10.05;;;3.53;;
69207;SDS011;70114;47.690;8.898;2024-03-02T07:33:35;9.98;;;3.35;;
69207;SDS011;70114;47.690;8.898;2024-03-02T07:36:00;10.40;;;3.80;;
69207;SDS011;70114;47.690;8.898;2024-03-02T07:38:27;9.10;;;3.28;;
69207;SDS011;70114;47.690;8.898;2024-03-02T07:40:53;9.50;;;3.17;;
69207;SDS011;70114;47.690;8.898;2024-03-02T07:43:20;10.83;;;3.13;;
69207;SDS011;70114;47.690;8.898;2024-03-02T07:45:46;11.75;;;3.60;;
69207;SDS011;70114;47.690;8.898;2024-03-02T07:48:12;12.15;;;3.85;;
69207;SDS011;70114;47.690;8.898;2024-03-02T07:50:37;14.50;;;4.57;;
69207;SDS011;70114;47.690;8.898;2024-03-02T07:53:04;12.10;;;4.32;;
69207;SDS011;70114;47.690;8.898;2024-03-02T07:55:30;11.95;;;4.00;;
69207;SDS011;70114;47.690;8.898;2024-03-02T07:57:56;12.70;;;4.17;;
69207;SDS011;70114;47.690;8.898;2024-03-02T08:00:21;10.40;;;3.85;;
69207;SDS011;70114;47.690;8.898;2024-03-02T08:02:48;11.10;;;3.90;;
69207;SDS011;70114;47.690;8.898;2024-03-02T08:05:14;14.27;;;4.83;;
69207;SDS011;70114;47.690;8.898;2024-03-02T08:07:39;18.00;;;6.53;;
69207;SDS011;70114;47.690;8.898;2024-03-02T08:10:06;18.20;;;7.13;;
69207;SDS011;70114;47.690;8.898;2024-03-02T08:12:32;14.57;;;5.60;;
69207;SDS011;70114;47.690;8.898;2024-03-02T08:14:57;10.15;;;3.22;;
69207;SDS011;70114;47.690;8.898;2024-03-02T08:17:22;9.63;;;2.73;;
69207;SDS011;70114;47.690;8.898;2024-03-02T08:19:48;10.50;;;3.40;;
69207;SDS011;70114;47.690;8.898;2024-03-02T08:22:14;9.63;;;3.33;;
69207;SDS011;70114;47.690;8.898;2024-03-02T08:24:40;10.05;;;3.28;;
69207;SDS011;70114;47.690;8.898;2024-03-02T08:27:06;18.33;;;3.60;;
69207;SDS011;70114;47.690;8.898;2024-03-02T08:29:31;10.83;;;3.43;;
69207;SDS011;70114;47.690;8.898;2024-03-02T08:31:57;9.17;;;3.10;;
69207;SDS011;70114;47.690;8.898;2024-03-02T08:34:22;17.60;;;4.20;;
69207;SDS011;70114;47.690;8.898;2024-03-02T08:36:47;15.00;;;5.83;;
69207;SDS011;70114;47.690;8.898;2024-03-02T08:39:13;10.93;;;3.77;;
69207;SDS011;70114;47.690;8.898;2024-03-02T08:41:49;10.95;;;3.65;;
69207;SDS011;70114;47.690;8.898;2024-03-02T08:44:14;11.18;;;3.72;;
69207;SDS011;70114;47.690;8.898;2024-03-02T08:46:40;10.83;;;3.80;;
69207;SDS011;70114;47.690;8.898;2024-03-02T08:49:06;12.40;;;3.92;;
69207;SDS011;70114;47.690;8.898;2024-03-02T08:51:32;10.80;;;3.53;;
69207;SDS011;70114;47.690;8.898;2024-03-02T08:53:57;11.60;;;3.67;;
69207;SDS011;70114;47.690;8.898;2024-03-02T08:56:23;26.03;;;4.60;;
69207;SDS011;70114;47.690;8.898;2024-03-02T08:58:52;63.97;;;6.45;;
69207;SDS011;70114;47.690;8.898;2024-03-02T09:01:18;75.25;;;7.28;;
69207;SDS011;70114;47.690;8.898;2024-03-02T09:03:44;210.00;;;14.23;;
69207;SDS011;70114;47.690;8.898;2024-03-02T09:06:10;121.37;;;10.57;;
69207;SDS011;70114;47.690;8.898;2024-03-02T09:08:36;194.82;;;13.15;;
69207;SDS011;70114;47.690;8.898;2024-03-02T09:11:04;198.63;;;12.52;;
69207;SDS011;70114;47.690;8.898;2024-03-02T09:13:30;75.03;;;7.85;;
69207;SDS011;70114;47.690;8.898;2024-03-02T09:15:56;136.20;;;10.63;;
69207;SDS011;70114;47.690;8.898;2024-03-02T09:18:21;152.27;;;12.40;;
69207;SDS011;70114;47.690;8.898;2024-03-02T09:20:47;34.53;;;5.97;;
69207;SDS011;70114;47.690;8.898;2024-03-02T09:23:12;15.03;;;4.80;;
69207;SDS011;70114;47.690;8.898;2024-03-02T09:25:37;66.70;;;8.13;;
69207;SDS011;70114;47.690;8.898;2024-03-02T09:28:03;57.77;;;6.90;;
69207;SDS011;70114;47.690;8.898;2024-03-02T09:30:28;19.03;;;5.13;;
69207;SDS011;70114;47.690;8.898;2024-03-02T09:32:54;18.67;;;5.90;;
69207;SDS011;70114;47.690;8.898;2024-03-02T09:35:19;71.20;;;7.07;;
69207;SDS011;70114;47.690;8.898;2024-03-02T09:37:45;21.15;;;4.90;;
69207;SDS011;70114;47.690;8.898;2024-03-02T09:40:10;15.23;;;5.33;;
69207;SDS011;70114;47.690;8.898;2024-03-02T09:42:36;16.48;;;5.68;;
69207;SDS011;70114;47.690;8.898;2024-03-02T09:45:02;14.83;;;4.87;;
69207;SDS011;70114;47.690;8.898;2024-03-02T09:47:28;14.73;;;4.72;;
69207;SDS011;70114;47.690;8.898;2024-03-02T09:49:54;15.30;;;5.20;;
69207;SDS011;70114;47.690;8.898;2024-03-02T09:52:20;14.93;;;5.13;;
69207;SDS011;70114;47.690;8.898;2024-03-02T09:54:47;13.85;;;5.25;;
69207;SDS011;70114;47.690;8.898;2024-03-02T09:57:12;17.90;;;4.90;;
69207;SDS011;70114;47.690;8.898;2024-03-02T09:59:38;15.83;;;5.00;;
69207;SDS011;70114;47.690;8.898;2024-03-02T10:02:03;15.43;;;4.38;;
69207;SDS011;70114;47.690;8.898;2024-03-02T10:04:32;15.77;;;5.20;;
69207;SDS011;70114;47.690;8.898;2024-03-02T10:09:39;27.15;;;5.97;;
69207;SDS011;70114;47.690;8.898;2024-03-02T10:12:07;14.25;;;5.00;;
69207;SDS011;70114;47.690;8.898;2024-03-02T10:14:33;14.27;;;4.43;;
69207;SDS011;70114;47.690;8.898;2024-03-02T10:17:02;15.05;;;4.82;;
69207;SDS011;70114;47.690;8.898;2024-03-02T10:19:29;14.90;;;5.38;;
69207;SDS011;70114;47.690;8.898;2024-03-02T10:21:58;13.07;;;4.63;;
69207;SDS011;70114;47.690;8.898;2024-03-02T10:24:24;12.73;;;4.80;;
69207;SDS011;70114;47.690;8.898;2024-03-02T10:26:50;12.52;;;4.40;;
69207;SDS011;70114;47.690;8.898;2024-03-02T10:29:16;12.05;;;3.55;;
69207;SDS011;70114;47.690;8.898;2024-03-02T10:31:43;10.37;;;3.50;;
69207;SDS011;70114;47.690;8.898;2024-03-02T10:34:11;11.48;;;3.67;;
69207;SDS011;70114;47.690;8.898;2024-03-02T10:36:40;12.30;;;3.40;;
69207;SDS011;70114;47.690;8.898;2024-03-02T10:39:07;9.90;;;3.28;;
69207;SDS011;70114;47.690;8.898;2024-03-02T10:41:33;10.32;;;3.20;;
69207;SDS011;70114;47.690;8.898;2024-03-02T10:44:01;10.43;;;2.90;;
69207;SDS011;70114;47.690;8.898;2024-03-02T10:46:29;8.98;;;2.80;;
69207;SDS011;70114;47.690;8.898;2024-03-02T10:48:56;8.60;;;2.58;;
69207;SDS011;70114;47.690;8.898;2024-03-02T10:51:25;7.78;;;2.15;;
69207;SDS011;70114;47.690;8.898;2024-03-02T10:53:53;8.52;;;2.38;;
69207;SDS011;70114;47.690;8.898;2024-03-02T10:56:27;6.80;;;2.03;;
69207;SDS011;70114;47.690;8.898;2024-03-02T10:59:44;7.60;;;2.42;;
69207;SDS011;70114;47.690;8.898;2024-03-02T11:01:50;9.63;;;3.17;;
69207;SDS011;70114;47.690;8.898;2024-03-02T11:04:16;8.25;;;2.45;;
69207;SDS011;70114;47.690;8.898;2024-03-02T11:06:46;6.67;;;1.83;;
69207;SDS011;70114;47.690;8.898;2024-03-02T11:09:13;7.38;;;1.95;;
69207;SDS011;70114;47.690;8.898;2024-03-02T11:11:43;5.72;;;1.17;;
69207;SDS011;70114;47.690;8.898;2024-03-02T11:14:16;6.30;;;1.30;;
69207;SDS011;70114;47.690;8.898;2024-03-02T11:16:46;5.17;;;1.03;;
69207;SDS011;70114;47.690;8.898;2024-03-02T11:19:12;5.90;;;1.10;;
69207;SDS011;70114;47.690;8.898;2024-03-02T11:21:38;5.10;;;0.88;;
69207;SDS011;70114;47.690;8.898;2024-03-02T11:26:52;4.85;;;0.98;;
69207;SDS011;70114;47.690;8.898;2024-03-02T11:32:01;6.90;;;1.27;;
69207;SDS011;70114;47.690;8.898;2024-03-02T11:34:28;5.60;;;1.30;;
69207;SDS011;70114;47.690;8.898;2024-03-02T11:36:55;5.65;;;1.20;;
69207;SDS011;70114;47.690;8.898;2024-03-02T11:39:20;6.00;;;1.13;;
69207;SDS011;70114;47.690;8.898;2024-03-02T11:41:45;5.33;;;0.60;;
69207;SDS011;70114;47.690;8.898;2024-03-02T11:44:11;5.03;;;0.80;;
69207;SDS011;70114;47.690;8.898;2024-03-02T11:46:39;4.65;;;0.77;;
69207;SDS011;70114;47.690;8.898;2024-03-02T11:49:04;3.22;;;0.57;;
69207;SDS011;70114;47.690;8.898;2024-03-02T11:51:30;4.37;;;0.67;;
69207;SDS011;70114;47.690;8.898;2024-03-02T11:54:00;4.55;;;0.80;;
69207;SDS011;70114;47.690;8.898;2024-03-02T11:56:27;5.95;;;1.27;;
69207;SDS011;70114;47.690;8.898;2024-03-02T11:58:55;5.35;;;1.10;;
69207;SDS011;70114;47.690;8.898;2024-03-02T12:01:22;4.78;;;0.90;;
69207;SDS011;70114;47.690;8.898;2024-03-02T12:03:48;4.90;;;1.00;;
69207;SDS011;70114;47.690;8.898;2024-03-02T12:06:14;4.72;;;0.70;;
69207;SDS011;70114;47.690;8.898;2024-03-02T12:08:40;5.47;;;0.77;;
69207;SDS011;70114;47.690;8.898;2024-03-02T12:11:05;5.57;;;1.02;;
69207;SDS011;70114;47.690;8.898;2024-03-02T12:13:31;5.07;;;0.83;;
69207;SDS011;70114;47.690;8.898;2024-03-02T12:15:58;4.90;;;1.02;;
69207;SDS011;70114;47.690;8.898;2024-03-02T12:18:24;6.07;;;1.50;;
69207;SDS011;70114;47.690;8.898;2024-03-02T12:20:50;6.67;;;1.80;;
69207;SDS011;70114;47.690;8.898;2024-03-02T12:23:17;7.28;;;1.83;;
69207;SDS011;70114;47.690;8.898;2024-03-02T12:25:43;7.03;;;1.77;;
69207;SDS011;70114;47.690;8.898;2024-03-02T12:28:09;7.43;;;2.00;;
69207;SDS011;70114;47.690;8.898;2024-03-02T12:30:35;5.97;;;1.27;;
69207;SDS011;70114;47.690;8.898;2024-03-02T12:33:01;6.07;;;1.67;;
69207;SDS011;70114;47.690;8.898;2024-03-02T12:35:26;5.50;;;1.40;;
69207;SDS011;70114;47.690;8.898;2024-03-02T12:37:52;6.07;;;1.60;;
69207;SDS011;70114;47.690;8.898;2024-03-02T12:40:19;5.32;;;1.20;;
69207;SDS011;70114;47.690;8.898;2024-03-02T12:42:47;4.40;;;0.77;;
69207;SDS011;70114;47.690;8.898;2024-03-02T12:45:13;3.63;;;0.60;;
69207;SDS011;70114;47.690;8.898;2024-03-02T12:47:39;5.82;;;1.20;;
69207;SDS011;70114;47.690;8.898;2024-03-02T12:50:06;6.15;;;1.20;;
69207;SDS011;70114;47.690;8.898;2024-03-02T12:52:32;5.30;;;1.47;;
69207;SDS011;70114;47.690;8.898;2024-03-02T12:54:59;6.00;;;1.70;;
69207;SDS011;70114;47.690;8.898;2024-03-02T12:57:26;5.20;;;1.23;;
69207;SDS011;70114;47.690;8.898;2024-03-02T13:00:12;5.35;;;1.10;;
69207;SDS011;70114;47.690;8.898;2024-03-02T13:02:41;69.88;;;28.80;;
69207;SDS011;70114;47.690;8.898;2024-03-02T13:05:16;5.93;;;1.50;;
69207;SDS011;70114;47.690;8.898;2024-03-02T13:07:42;6.57;;;1.30;;
69207;SDS011;70114;47.690;8.898;2024-03-02T13:10:08;6.45;;;1.48;;
69207;SDS011;70114;47.690;8.898;2024-03-02T13:12:34;5.63;;;1.10;;
69207;SDS011;70114;47.690;8.898;2024-03-02T13:15:03;5.18;;;1.08;;
69207;SDS011;70114;47.690;8.898;2024-03-02T13:17:34;5.93;;;0.80;;
69207;SDS011;70114;47.690;8.898;2024-03-02T13:20:05;4.82;;;1.00;;
69207;SDS011;70114;47.690;8.898;2024-03-02T13:22:39;5.13;;;1.10;;
69207;SDS011;70114;47.690;8.898;2024-03-02T13:25:06;5.13;;;1.10;;
69207;SDS011;70114;47.690;8.898;2024-03-02T13:27:35;4.88;;;1.13;;
69207;SDS011;70114;47.690;8.898;2024-03-02T13:30:04;5.97;;;1.50;;
69207;SDS011;70114;47.690;8.898;2024-03-02T13:32:34;5.68;;;1.60;;
69207;SDS011;70114;47.690;8.898;2024-03-02T13:34:59;5.93;;;1.43;;
69207;SDS011;70114;47.690;8.898;2024-03-02T13:37:25;6.82;;;1.85;;
69207;SDS011;70114;47.690;8.898;2024-03-02T13:39:50;5.70;;;1.50;;
69207;SDS011;70114;47.690;8.898;2024-03-02T13:42:21;5.47;;;1.58;;
69207;SDS011;70114;47.690;8.898;2024-03-02T13:44:50;5.90;;;1.90;;
69207;SDS011;70114;47.690;8.898;2024-03-02T13:47:19;6.82;;;2.03;;
69207;SDS011;70114;47.690;8.898;2024-03-02T13:49:46;8.32;;;1.95;;
69207;SDS011;70114;47.690;8.898;2024-03-02T13:52:13;5.97;;;1.90;;
69207;SDS011;70114;47.690;8.898;2024-03-02T13:54:40;6.50;;;1.83;;
69207;SDS011;70114;47.690;8.898;2024-03-02T13:57:09;7.30;;;2.50;;
69207;SDS011;70114;47.690;8.898;2024-03-02T13:59:35;7.10;;;2.30;;
69207;SDS011;70114;47.690;8.898;2024-03-02T14:02:02;6.40;;;2.25;;
69207;SDS011;70114;47.690;8.898;2024-03-02T14:04:31;6.93;;;2.05;;
69207;SDS011;70114;47.690;8.898;2024-03-02T14:06:58;6.90;;;2.50;;
69207;SDS011;70114;47.690;8.898;2024-03-02T14:09:24;5.70;;;2.00;;
69207;SDS011;70114;47.690;8.898;2024-03-02T14:11:49;6.27;;;1.90;;
69207;SDS011;70114;47.690;8.898;2024-03-02T14:14:16;6.28;;;2.00;;
69207;SDS011;70114;47.690;8.898;2024-03-02T14:16:41;7.00;;;2.07;;
69207;SDS011;70114;47.690;8.898;2024-03-02T14:19:07;7.17;;;2.10;;
69207;SDS011;70114;47.690;8.898;2024-03-02T14:21:34;6.05;;;2.00;;
69207;SDS011;70114;47.690;8.898;2024-03-02T14:24:00;7.23;;;2.07;;
69207;SDS011;70114;47.690;8.898;2024-03-02T14:26:26;6.43;;;1.83;;
69207;SDS011;70114;47.690;8.898;2024-03-02T14:28:53;6.47;;;2.20;;
69207;SDS011;70114;47.690;8.898;2024-03-02T14:31:18;5.75;;;1.80;;
69207;SDS011;70114;47.690;8.898;2024-03-02T14:33:45;7.07;;;2.30;;
69207;SDS011;70114;47.690;8.898;2024-03-02T14:36:10;6.27;;;1.90;;
69207;SDS011;70114;47.690;8.898;2024-03-02T14:38:36;6.40;;;2.03;;
69207;SDS011;70114;47.690;8.898;2024-03-02T14:41:02;6.13;;;1.80;;
69207;SDS011;70114;47.690;8.898;2024-03-02T14:43:28;6.18;;;1.80;;
69207;SDS011;70114;47.690;8.898;2024-03-02T14:45:54;6.93;;;1.70;;
69207;SDS011;70114;47.690;8.898;2024-03-02T14:48:20;6.50;;;1.88;;